createdAt,value
2023-04-05T00:02:24.485Z,50.72
2023-04-05T00:04:54.717Z,50.89
2023-04-05T00:07:21.773Z,51.08
2023-04-05T00:09:49.542Z,50.98
2023-04-05T00:12:16.541Z,50.90
2023-04-05T00:14:43.391Z,51.18
2023-04-05T00:17:11.964Z,51.31
2023-04-05T00:19:39.816Z,51.47
2023-04-05T00:22:10.536Z,51.56
2023-04-05T00:24:41.853Z,51.33
2023-04-05T00:27:08.881Z,51.04
2023-04-05T00:29:35.932Z,51.04
2023-04-05T00:32:04.646Z,51.10
2023-04-05T00:34:32.598Z,50.69
2023-04-05T00:36:59.948Z,51.12
2023-04-05T00:39:27.529Z,51.05
2023-04-05T00:41:54.366Z,50.87
2023-04-05T00:44:21.295Z,50.99
2023-04-05T00:46:48.547Z,51.26
2023-04-05T00:49:15.385Z,51.32
2023-04-05T00:51:42.335Z,51.29
2023-04-05T00:54:09.671Z,50.75
2023-04-05T00:56:36.751Z,50.57
2023-04-05T00:59:03.591Z,50.78
2023-04-05T01:01:37.755Z,50.90
2023-04-05T01:04:06.931Z,51.13
2023-04-05T01:06:54.160Z,50.81
2023-04-05T01:09:53.888Z,50.83
2023-04-05T01:12:24.446Z,50.95
2023-04-05T01:14:54.244Z,50.38
2023-04-05T01:17:28.092Z,50.52
2023-04-05T01:20:01.033Z,50.95
2023-04-05T01:23:01.659Z,51.96
2023-04-05T01:25:49.777Z,52.06
2023-04-05T01:28:46.805Z,52.26
2023-04-05T01:31:38.482Z,52.00
2023-04-05T01:34:14.640Z,52.04
2023-04-05T01:36:50.066Z,52.35
2023-04-05T01:39:20.665Z,52.42
2023-04-05T01:41:47.788Z,52.27
2023-04-05T01:44:14.828Z,52.21
2023-04-05T01:46:41.992Z,52.36
2023-04-05T01:49:09.037Z,52.21
2023-04-05T01:51:35.909Z,52.42
2023-04-05T01:54:02.712Z,52.34
2023-04-05T01:56:29.504Z,52.45
2023-04-05T01:58:56.499Z,52.40
2023-04-05T02:01:23.370Z,52.30
2023-04-05T02:03:50.338Z,52.31
2023-04-05T02:06:17.313Z,52.17
2023-04-05T02:08:44.261Z,52.14
2023-04-05T02:11:11.163Z,51.84
2023-04-05T02:13:37.960Z,51.59
2023-04-05T02:16:04.905Z,51.43
2023-04-05T02:18:32.013Z,51.42
2023-04-05T02:21:08.238Z,51.56
2023-04-05T02:23:35.477Z,51.44
2023-04-05T02:26:02.567Z,51.13
2023-04-05T02:28:29.649Z,51.19
2023-04-05T02:30:56.817Z,51.28
2023-04-05T02:33:23.751Z,51.25
2023-04-05T02:35:52.566Z,50.78
2023-04-05T02:38:19.409Z,51.05
2023-04-05T02:40:49.769Z,50.95
2023-04-05T02:43:16.811Z,51.00
2023-04-05T02:45:46.254Z,50.33
2023-04-05T02:48:13.755Z,50.52
2023-04-05T02:50:40.900Z,50.46
2023-04-05T02:53:08.126Z,50.51
2023-04-05T02:55:35.002Z,50.88
2023-04-05T02:58:01.931Z,50.86
2023-04-05T03:00:29.116Z,50.55
2023-04-05T03:02:56.626Z,50.56
2023-04-05T03:05:23.614Z,50.71
2023-04-05T03:07:51.947Z,50.59
2023-04-05T03:10:22.524Z,50.78
2023-04-05T03:12:51.465Z,50.45
2023-04-05T03:15:18.340Z,50.57
2023-04-05T03:17:45.831Z,50.94
2023-04-05T03:20:13.262Z,50.99
2023-04-05T03:22:41.104Z,50.88
2023-04-05T03:25:08.267Z,50.75
2023-04-05T03:27:35.286Z,51.03
2023-04-05T03:30:02.323Z,50.78
2023-04-05T03:32:29.190Z,50.80
2023-04-05T03:34:56.751Z,50.60
2023-04-05T03:37:23.672Z,50.65
2023-04-05T03:39:50.917Z,50.65
2023-04-05T03:42:18.052Z,50.72
2023-04-05T03:44:44.877Z,50.85
2023-04-05T03:47:13.166Z,50.80
2023-04-05T03:49:41.109Z,50.65
2023-04-05T03:52:08.615Z,50.58
2023-04-05T03:54:35.593Z,50.94
2023-04-05T03:57:02.967Z,50.57
2023-04-05T03:59:29.975Z,50.97
2023-04-05T04:01:56.981Z,50.96
2023-04-05T04:04:23.885Z,51.24
2023-04-05T04:06:50.958Z,51.12
2023-04-05T04:09:17.796Z,51.34
2023-04-05T04:11:44.596Z,51.89
2023-04-05T04:14:11.429Z,51.93
2023-04-05T04:16:38.250Z,51.74
2023-04-05T04:19:05.396Z,51.50
2023-04-05T04:21:32.564Z,51.50
2023-04-05T04:24:00.772Z,51.40
2023-04-05T04:26:29.000Z,51.63
2023-04-05T04:28:56.646Z,51.71
2023-04-05T04:31:23.495Z,51.93
2023-04-05T04:33:50.802Z,51.65
2023-04-05T04:36:18.229Z,51.91
2023-04-05T04:38:46.081Z,52.21
2023-04-05T04:41:14.239Z,52.56
2023-04-05T06:00:34.793Z,49.76
2023-04-05T06:03:01.781Z,48.71
2023-04-05T06:05:29.114Z,47.57
2023-04-05T06:07:55.910Z,47.30
2023-04-05T06:10:24.188Z,47.05
2023-04-05T06:12:51.653Z,46.72
2023-04-05T06:15:18.436Z,46.16
2023-04-05T06:17:45.441Z,45.20
2023-04-05T06:20:12.658Z,44.85
2023-04-05T06:22:42.583Z,45.31
2023-04-05T06:25:10.122Z,44.75
2023-04-05T06:27:36.910Z,43.52
2023-04-05T06:30:04.211Z,43.31
2023-04-05T06:32:31.032Z,42.74
2023-04-05T06:34:57.906Z,42.44
2023-04-05T06:37:24.728Z,42.83
2023-04-05T06:39:51.479Z,42.59
2023-04-05T06:42:18.384Z,42.14
2023-04-05T06:44:45.354Z,42.55
2023-04-05T06:47:12.104Z,41.67
2023-04-05T06:49:38.895Z,42.59
2023-04-05T06:52:06.710Z,41.45
2023-04-05T06:54:34.467Z,41.25
2023-04-05T06:57:02.160Z,41.39
2023-04-05T06:59:29.946Z,41.58
2023-04-05T07:01:56.958Z,41.89
2023-04-05T07:04:23.806Z,41.57
2023-04-05T07:06:51.029Z,40.45
2023-04-05T07:09:18.084Z,40.61
2023-04-05T07:11:44.883Z,40.07
2023-04-05T07:14:11.742Z,40.56
2023-04-05T07:16:38.528Z,40.12
2023-04-05T07:19:06.181Z,39.75
2023-04-05T07:21:33.214Z,39.71
2023-04-05T07:24:01.878Z,39.47
2023-04-05T07:26:28.976Z,39.23
2023-04-05T07:28:55.757Z,38.81
2023-04-05T07:31:22.608Z,38.23
2023-04-05T07:33:49.410Z,38.19
2023-04-05T07:36:16.349Z,38.30
2023-04-05T07:38:43.255Z,37.52
2023-04-05T07:41:10.250Z,37.16
2023-04-05T07:43:37.248Z,37.30
2023-04-05T07:46:04.965Z,36.98
2023-04-05T07:48:31.916Z,36.84
2023-04-05T07:51:05.118Z,35.83
2023-04-05T07:53:32.036Z,35.59
2023-04-05T07:55:59.177Z,35.61
2023-04-05T07:58:26.303Z,35.44
2023-04-05T08:00:53.486Z,35.63
2023-04-05T08:03:20.667Z,34.76
2023-04-05T08:05:47.620Z,34.11
2023-04-05T08:08:14.422Z,33.79
2023-04-05T08:10:41.399Z,34.22
2023-04-05T08:13:08.361Z,33.70
2023-04-05T08:15:35.729Z,33.83
2023-04-05T08:18:02.642Z,34.50
2023-04-05T08:20:29.519Z,33.88
2023-04-05T08:22:56.426Z,33.76
2023-04-05T08:25:23.310Z,33.10
2023-04-05T08:27:50.147Z,32.90
2023-04-05T08:30:19.810Z,32.99
2023-04-05T08:32:46.677Z,32.78
2023-04-05T08:35:13.554Z,33.12
2023-04-05T08:37:40.677Z,31.80
2023-04-05T08:40:08.665Z,31.41
2023-04-05T08:42:47.029Z,31.30
2023-04-05T08:45:18.170Z,30.15
2023-04-05T08:47:46.421Z,29.81
2023-04-05T08:50:13.699Z,31.54
2023-04-05T08:52:43.121Z,31.58
2023-04-05T08:55:10.151Z,31.63
2023-04-05T08:57:40.525Z,31.47
2023-04-05T09:00:09.130Z,32.05
2023-04-05T09:02:38.006Z,32.65
2023-04-05T09:05:09.980Z,31.79
2023-04-05T09:07:38.571Z,32.38
2023-04-05T09:10:07.010Z,31.01
2023-04-05T09:12:36.717Z,32.60
2023-04-05T09:15:03.676Z,31.13
2023-04-05T09:17:32.375Z,30.75
2023-04-05T09:19:59.268Z,30.88
2023-04-05T09:22:26.126Z,31.75
2023-04-05T09:24:53.204Z,31.01
2023-04-05T09:27:20.801Z,30.98
2023-04-05T09:29:49.841Z,31.25
2023-04-05T09:32:21.497Z,29.87
2023-04-05T09:34:48.506Z,30.65
2023-04-05T09:37:22.320Z,30.29
2023-04-05T09:39:51.722Z,31.30
2023-04-05T09:42:22.931Z,29.41
2023-04-05T09:45:02.567Z,30.00
2023-04-05T09:47:34.093Z,31.61
2023-04-05T09:50:07.055Z,32.30
2023-04-05T09:52:34.096Z,28.36
2023-04-05T09:55:04.184Z,29.85
2023-04-05T09:57:37.704Z,29.91
2023-04-05T10:00:19.290Z,30.32
2023-04-05T10:02:51.935Z,27.45
2023-04-05T10:05:19.082Z,28.71
2023-04-05T10:07:46.183Z,30.29
2023-04-05T10:10:15.966Z,28.77
2023-04-05T10:12:43.137Z,27.34
2023-04-05T10:15:12.114Z,28.17
2023-04-05T10:18:04.442Z,29.66
2023-04-05T10:20:33.676Z,28.43
2023-04-05T10:23:08.458Z,28.98
2023-04-05T10:25:53.783Z,29.40
2023-04-05T10:28:36.174Z,29.76
2023-04-05T10:31:52.785Z,28.85
2023-04-05T10:34:42.422Z,29.48
2023-04-05T10:37:24.700Z,30.85
2023-04-05T10:39:51.685Z,29.05
2023-04-05T10:42:28.029Z,27.73
2023-04-05T10:45:04.505Z,27.51
2023-04-05T10:47:39.176Z,27.48
2023-04-05T10:50:13.184Z,27.44
2023-04-05T10:52:41.369Z,29.03
2023-04-05T10:55:10.534Z,26.39
2023-04-05T10:57:37.968Z,28.47
2023-04-05T11:00:05.878Z,29.03
2023-04-05T11:02:33.398Z,28.67
2023-04-05T11:05:05.079Z,29.18
2023-04-05T11:07:45.445Z,28.57
2023-04-05T11:10:19.131Z,29.45
2023-04-05T11:12:46.310Z,29.92
2023-04-05T11:15:28.872Z,26.25
2023-04-05T11:18:17.728Z,26.07
2023-04-05T11:20:52.538Z,26.96
2023-04-05T11:23:22.340Z,26.90
2023-04-05T11:25:57.675Z,26.95
2023-04-05T11:28:28.500Z,29.19
2023-04-05T11:30:57.309Z,24.79
2023-04-05T11:33:43.215Z,26.95
2023-04-05T11:36:10.985Z,26.55
2023-04-05T11:38:37.983Z,26.42
2023-04-05T11:41:20.998Z,24.53
2023-04-05T11:43:48.218Z,25.46
2023-04-05T11:46:19.111Z,25.49
2023-04-05T11:48:52.072Z,25.54
2023-04-05T11:51:22.892Z,26.57
2023-04-05T11:53:50.283Z,25.18
2023-04-05T11:56:17.057Z,25.57
2023-04-05T11:58:43.866Z,25.67
2023-04-05T12:01:10.807Z,26.57
2023-04-05T12:03:38.174Z,24.14
2023-04-05T12:06:07.875Z,25.22
2023-04-05T12:08:53.038Z,25.29
2023-04-05T12:11:31.299Z,24.83
2023-04-05T12:14:01.161Z,26.79
2023-04-05T12:16:29.350Z,26.42
2023-04-05T12:19:00.652Z,28.27
2023-04-05T12:21:28.448Z,26.61
2023-04-05T12:23:55.426Z,24.91
2023-04-05T12:26:22.530Z,24.83
2023-04-05T12:28:53.717Z,25.18
2023-04-05T12:31:45.478Z,24.91
2023-04-05T12:34:15.489Z,24.06
2023-04-05T12:36:46.391Z,24.45
2023-04-05T12:39:13.245Z,25.11
2023-04-05T12:41:40.261Z,24.09
2023-04-05T12:44:15.702Z,24.00
2023-04-05T12:46:46.126Z,23.86
2023-04-05T12:49:17.504Z,25.10
2023-04-05T12:51:48.361Z,26.69
2023-04-05T12:54:24.277Z,26.45
2023-04-05T12:56:53.728Z,23.96
2023-04-05T12:59:24.226Z,25.01
2023-04-05T13:01:51.405Z,23.78
2023-04-05T13:04:18.355Z,25.58
2023-04-05T13:06:47.537Z,26.93
2023-04-05T13:09:14.765Z,28.15
2023-04-05T13:11:41.585Z,25.07
2023-04-05T13:14:08.882Z,23.25
2023-04-05T13:16:36.394Z,21.84
2023-04-05T13:19:03.189Z,19.94
2023-04-05T13:21:30.051Z,19.30
2023-04-05T13:23:56.874Z,18.41
2023-04-05T13:26:23.820Z,17.97
2023-04-05T13:28:50.840Z,19.09
2023-04-05T13:31:17.738Z,19.18
2023-04-05T13:33:44.571Z,18.83
2023-04-05T13:36:12.442Z,19.22
2023-04-05T13:38:39.853Z,18.16
2023-04-05T13:41:06.776Z,17.22
2023-04-05T13:43:33.964Z,15.94
2023-04-05T13:46:00.761Z,17.81
2023-04-05T13:48:27.605Z,17.63
2023-04-05T13:50:54.376Z,18.11
2023-04-05T13:53:21.179Z,17.51
2023-04-05T13:55:48.018Z,18.18
2023-04-05T13:58:14.833Z,18.15
2023-04-05T14:00:42.037Z,17.95
2023-04-05T14:03:09.114Z,20.98
2023-04-05T14:05:36.086Z,20.89
2023-04-05T14:08:02.965Z,23.48
2023-04-05T14:10:32.017Z,24.35
2023-04-05T14:12:58.826Z,24.81
2023-04-05T14:15:25.811Z,24.19
2023-04-05T14:17:52.724Z,24.11
2023-04-05T14:20:19.582Z,22.90
2023-04-05T14:22:46.417Z,21.60
2023-04-05T14:25:13.270Z,20.86
2023-04-05T14:27:42.289Z,18.54
2023-04-05T14:30:11.344Z,17.63
2023-04-05T14:32:38.636Z,17.96
2023-04-05T14:35:06.248Z,17.60
2023-04-05T14:37:33.091Z,17.96
2023-04-05T14:39:59.919Z,17.77
2023-04-05T14:42:37.192Z,17.70
2023-04-05T14:45:09.392Z,17.20
2023-04-05T14:47:36.233Z,16.64
2023-04-05T14:50:03.238Z,18.52
2023-04-05T14:52:30.581Z,20.27
2023-04-05T14:54:57.451Z,20.87
2023-04-05T14:57:24.349Z,19.94
2023-04-05T14:59:51.240Z,18.99
2023-04-05T15:02:18.228Z,18.07
2023-04-05T15:04:45.125Z,17.58
2023-04-05T15:07:11.947Z,17.59
2023-04-05T15:09:38.808Z,17.25
2023-04-05T15:12:06.677Z,15.90
2023-04-05T15:14:33.455Z,16.68
2023-04-05T15:17:00.408Z,16.03
2023-04-05T15:19:27.586Z,15.50
2023-04-05T15:21:54.537Z,15.83
2023-04-05T15:24:21.510Z,17.03
2023-04-05T15:26:48.350Z,18.71
2023-04-05T15:29:15.348Z,20.39
2023-04-05T15:31:42.665Z,21.66
2023-04-05T15:34:09.514Z,23.10
2023-04-05T15:36:36.592Z,24.52
2023-04-05T15:39:05.137Z,25.59
2023-04-05T15:41:34.147Z,26.35
2023-04-05T15:44:01.438Z,27.46
2023-04-05T15:46:29.110Z,27.46
2023-04-05T15:48:56.225Z,27.69
2023-04-05T15:51:23.230Z,28.40
2023-04-05T15:53:50.719Z,28.31
2023-04-05T15:56:18.177Z,28.31
2023-04-05T15:58:45.249Z,29.15
2023-04-05T16:01:12.297Z,29.58
2023-04-05T16:03:39.380Z,30.03
2023-04-05T16:06:06.603Z,30.06
2023-04-05T16:08:33.594Z,29.78
2023-04-05T16:11:00.577Z,30.26
2023-04-05T16:13:28.087Z,29.89
2023-04-05T16:15:54.955Z,31.42
2023-04-05T16:18:23.693Z,31.37
2023-04-05T16:20:50.771Z,29.29
2023-04-05T16:23:17.578Z,28.78
2023-04-05T16:25:44.439Z,28.50
2023-04-05T16:28:11.288Z,29.27
2023-04-05T16:30:38.231Z,29.73
2023-04-05T16:33:05.727Z,27.96
2023-04-05T16:35:32.645Z,28.92
2023-04-05T16:37:59.577Z,28.15
2023-04-05T16:40:26.642Z,28.23
2023-04-05T16:42:54.237Z,27.93
2023-04-05T16:45:21.464Z,28.61
2023-04-05T16:47:48.465Z,28.44
2023-04-05T16:50:15.513Z,29.14
2023-04-05T16:52:42.443Z,28.91
2023-04-05T16:55:09.839Z,28.44
2023-04-05T16:57:36.727Z,29.07
2023-04-05T17:00:05.672Z,30.01
2023-04-05T17:02:32.565Z,30.03
2023-04-05T17:04:59.418Z,30.40
2023-04-05T17:07:26.388Z,30.86
2023-04-05T17:09:53.365Z,30.06
2023-04-05T17:12:20.341Z,30.07
2023-04-05T17:14:47.177Z,30.20
2023-04-05T17:17:13.957Z,30.20
2023-04-05T17:19:41.066Z,32.01
2023-04-05T17:22:08.248Z,32.86
2023-04-05T17:24:36.755Z,32.98
2023-04-05T17:27:04.447Z,33.19
2023-04-05T17:29:31.351Z,33.31
2023-04-05T17:31:58.180Z,33.65
2023-04-05T17:34:25.014Z,33.54
2023-04-05T17:36:52.805Z,34.60
2023-04-05T17:39:19.701Z,35.45
2023-04-05T17:41:46.677Z,35.46
2023-04-05T17:44:14.633Z,36.04
2023-04-05T17:46:48.503Z,37.20
2023-04-05T17:49:21.152Z,38.13
2023-04-05T17:51:48.495Z,38.80
2023-04-05T17:54:15.555Z,38.69
2023-04-05T17:56:42.647Z,39.05
2023-04-05T17:59:09.784Z,39.56
2023-04-05T18:01:38.008Z,40.26
2023-04-05T18:04:05.726Z,40.25
2023-04-05T18:06:33.004Z,40.42
2023-04-05T18:09:00.297Z,40.45
2023-04-05T18:11:27.080Z,41.00
2023-04-05T18:13:53.927Z,41.54
2023-04-05T18:16:21.655Z,41.96
2023-04-05T18:18:48.487Z,42.18
2023-04-05T18:21:15.326Z,42.64
2023-04-05T18:23:43.225Z,43.83
2023-04-05T18:26:10.097Z,43.75
2023-04-05T18:28:36.975Z,43.77
2023-04-05T18:31:03.887Z,43.51
2023-04-05T18:33:30.759Z,43.31
2023-04-05T18:35:57.707Z,43.63
2023-04-05T18:38:24.583Z,43.58
2023-04-05T18:41:03.861Z,43.68
2023-04-05T18:43:31.080Z,43.86
2023-04-05T18:45:57.952Z,43.90
2023-04-05T18:48:25.471Z,44.32
2023-04-05T18:50:56.186Z,44.61
2023-04-05T18:53:23.499Z,44.16
2023-04-05T18:55:52.161Z,44.15
2023-04-05T18:58:19.543Z,44.41
2023-04-05T19:00:46.421Z,44.39
2023-04-05T19:03:14.061Z,44.27
2023-04-05T19:05:41.272Z,44.46
2023-04-05T19:08:08.152Z,44.62
2023-04-05T19:10:35.056Z,44.79
2023-04-05T19:13:01.915Z,44.63
2023-04-05T19:15:28.803Z,44.98
2023-04-05T19:17:56.299Z,44.91
2023-04-05T19:20:23.148Z,45.04
2023-04-05T19:22:50.289Z,45.24
2023-04-05T19:25:17.367Z,45.07
2023-04-05T19:27:44.227Z,45.25
2023-04-05T19:30:11.573Z,45.50
2023-04-05T19:32:38.595Z,45.49
2023-04-05T19:35:08.988Z,45.94
2023-04-05T19:37:36.213Z,45.94
2023-04-05T19:40:05.639Z,45.77
2023-04-05T19:42:33.122Z,45.73
2023-04-05T19:45:00.063Z,45.97
2023-04-05T19:47:27.265Z,45.73
2023-04-05T19:49:58.524Z,46.57
2023-04-05T19:52:49.039Z,46.28
2023-04-05T19:55:36.134Z,46.19
2023-04-05T19:58:12.086Z,46.08
2023-04-05T20:00:52.416Z,46.49
2023-04-05T20:03:40.032Z,46.08
2023-04-05T20:06:16.691Z,44.96
2023-04-05T20:08:46.803Z,45.08
2023-04-05T20:11:18.878Z,45.55
2023-04-05T20:13:54.555Z,45.42
2023-04-05T20:16:27.514Z,45.93
2023-04-05T20:18:58.784Z,46.10
2023-04-05T20:21:26.095Z,46.64
2023-04-05T20:23:53.415Z,46.47
2023-04-05T20:26:28.249Z,46.83
2023-04-05T20:28:57.503Z,46.65
2023-04-05T20:31:29.298Z,47.18
2023-04-05T20:34:14.554Z,47.34
2023-04-05T20:36:52.320Z,47.07
2023-04-05T20:39:19.322Z,47.50
2023-04-05T20:41:47.089Z,47.39
2023-04-05T20:44:14.006Z,47.88
2023-04-05T20:46:41.133Z,48.11
2023-04-05T20:49:08.313Z,48.40
2023-04-05T20:51:36.217Z,48.01
2023-04-05T20:54:03.227Z,47.70
2023-04-05T20:56:30.289Z,47.71
2023-04-05T20:58:57.234Z,47.96
2023-04-05T21:01:24.090Z,48.68
2023-04-05T21:03:51.178Z,48.92
2023-04-05T21:06:18.054Z,48.89
2023-04-05T21:08:44.880Z,48.65
2023-04-05T21:11:11.904Z,49.04
2023-04-05T21:13:41.346Z,49.72
2023-04-05T21:16:08.556Z,49.75
2023-04-05T21:18:36.340Z,50.49
2023-04-05T21:21:03.441Z,51.00
2023-04-05T21:23:31.578Z,51.25
2023-04-05T21:26:04.135Z,51.36
2023-04-05T21:28:31.138Z,51.37
2023-04-05T21:30:57.971Z,51.51
2023-04-05T21:33:25.230Z,51.48
2023-04-05T21:35:52.256Z,51.76
2023-04-05T21:38:19.242Z,52.12
2023-04-05T21:40:46.072Z,52.37
2023-04-05T21:43:13.428Z,52.24
2023-04-05T21:45:40.465Z,51.93
2023-04-05T21:48:07.511Z,51.16
2023-04-05T21:50:34.352Z,50.78
2023-04-05T21:53:01.236Z,51.11
2023-04-05T21:55:28.008Z,51.29
2023-04-05T21:57:54.922Z,51.94
2023-04-05T22:00:21.770Z,52.21
2023-04-05T22:02:48.677Z,52.20
2023-04-05T22:05:29.616Z,52.11
2023-04-05T22:08:03.648Z,52.14
2023-04-05T22:10:30.639Z,52.37
2023-04-05T22:12:57.498Z,52.11
2023-04-05T22:15:24.337Z,52.04
2023-04-05T22:17:51.275Z,52.24
2023-04-05T22:20:18.298Z,52.09
2023-04-05T22:22:45.141Z,52.23
2023-04-05T22:25:12.096Z,52.36
2023-04-05T22:27:39.445Z,52.67
2023-04-05T22:30:08.231Z,52.87
2023-04-05T22:32:35.711Z,52.76
2023-04-05T22:35:04.330Z,52.43
2023-04-05T22:37:35.521Z,51.94
2023-04-05T22:40:04.082Z,51.98
2023-04-05T22:42:30.957Z,52.47
2023-04-05T22:44:57.777Z,53.35
2023-04-05T22:47:24.741Z,53.49
2023-04-05T22:49:52.181Z,53.42
2023-04-05T22:52:19.176Z,53.46
2023-04-05T22:54:46.090Z,53.84
2023-04-05T22:57:13.057Z,53.82
2023-04-05T22:59:39.989Z,54.10
2023-04-05T23:02:06.848Z,53.92
2023-04-05T23:04:33.785Z,54.26
2023-04-05T23:07:00.780Z,54.37
2023-04-05T23:09:27.730Z,54.02
2023-04-05T23:11:54.517Z,54.31
2023-04-05T23:14:21.761Z,54.64
2023-04-05T23:16:48.601Z,54.73
2023-04-05T23:19:16.629Z,55.14
2023-04-05T23:21:43.573Z,55.55
2023-04-05T23:24:10.991Z,55.28
2023-04-05T23:26:38.073Z,55.84
2023-04-05T23:29:04.931Z,55.93
2023-04-05T23:31:31.805Z,55.57
2023-04-05T23:33:58.620Z,55.76
2023-04-05T23:36:26.030Z,55.16
2023-04-05T23:38:52.820Z,55.74
2023-04-05T23:41:19.675Z,55.37
2023-04-05T23:43:46.506Z,55.13
2023-04-05T23:46:13.684Z,55.08
2023-04-05T23:48:41.179Z,55.34
2023-04-05T23:51:08.017Z,55.40
2023-04-05T23:53:35.010Z,55.62
2023-04-05T23:56:02.292Z,55.46
2023-04-05T23:58:29.161Z,55.05
